sensor_id;sensor_type;location;lat;lon;timestamp;P1;durP1;ratioP1;P2;durP2;ratioP2
21777;SDS011;11050;52.222;20.916;2023-06-01T00:01:55;8.13;;;4.03;;
21777;SDS011;11050;52.222;20.916;2023-06-01T00:04:21;8.00;;;3.58;;
21777;SDS011;11050;52.222;20.916;2023-06-01T00:06:46;5.70;;;3.28;;
21777;SDS011;11050;52.222;20.916;2023-06-01T00:09:12;9.57;;;3.90;;
21777;SDS011;11050;52.222;20.916;2023-06-01T00:11:38;7.50;;;4.03;;
21777;SDS011;11050;52.222;20.916;2023-06-01T00:14:03;8.82;;;3.70;;
21777;SDS011;11050;52.222;20.916;2023-06-01T00:16:29;7.03;;;3.22;;
21777;SDS011;11050;52.222;20.916;2023-06-01T00:18:58;6.45;;;3.33;;
21777;SDS011;11050;52.222;20.916;2023-06-01T00:21:28;6.15;;;3.30;;
21777;SDS011;11050;52.222;20.916;2023-06-01T00:23:57;8.00;;;3.42;;
21777;SDS011;11050;52.222;20.916;2023-06-01T00:26:23;6.55;;;3.47;;
21777;SDS011;11050;52.222;20.916;2023-06-01T00:28:49;6.90;;;3.22;;
21777;SDS011;11050;52.222;20.916;2023-06-01T00:31:14;7.47;;;3.05;;
21777;SDS011;11050;52.222;20.916;2023-06-01T00:33:40;7.20;;;3.20;;
21777;SDS011;11050;52.222;20.916;2023-06-01T00:36:06;4.07;;;2.65;;
21777;SDS011;11050;52.222;20.916;2023-06-01T00:38:32;6.65;;;3.03;;
21777;SDS011;11050;52.222;20.916;2023-06-01T00:40:57;6.97;;;2.95;;
21777;SDS011;11050;52.222;20.916;2023-06-01T00:43:23;8.20;;;3.55;;
21777;SDS011;11050;52.222;20.916;2023-06-01T00:45:49;7.28;;;3.22;;
21777;SDS011;11050;52.222;20.916;2023-06-01T00:48:15;6.00;;;3.00;;
21777;SDS011;11050;52.222;20.916;2023-06-01T00:50:42;4.95;;;3.00;;
21777;SDS011;11050;52.222;20.916;2023-06-01T00:53:12;7.13;;;3.30;;
21777;SDS011;11050;52.222;20.916;2023-06-01T00:55:44;6.93;;;2.53;;
21777;SDS011;11050;52.222;20.916;2023-06-01T00:58:11;6.55;;;3.20;;
21777;SDS011;11050;52.222;20.916;2023-06-01T01:00:38;6.78;;;3.17;;
21777;SDS011;11050;52.222;20.916;2023-06-01T01:03:05;5.47;;;2.92;;
21777;SDS011;11050;52.222;20.916;2023-06-01T01:05:35;8.75;;;3.67;;
21777;SDS011;11050;52.222;20.916;2023-06-01T01:13:47;8.00;;;3.67;;
21777;SDS011;11050;52.222;20.916;2023-06-01T01:16:27;9.05;;;3.70;;
21777;SDS011;11050;52.222;20.916;2023-06-01T01:22:43;7.65;;;2.90;;
21777;SDS011;11050;52.222;20.916;2023-06-01T01:31:02;4.78;;;2.67;;
21777;SDS011;11050;52.222;20.916;2023-06-01T01:33:33;5.07;;;2.60;;
21777;SDS011;11050;52.222;20.916;2023-06-01T01:36:00;5.57;;;3.15;;
21777;SDS011;11050;52.222;20.916;2023-06-01T01:38:27;6.57;;;2.88;;
21777;SDS011;11050;52.222;20.916;2023-06-01T01:40:53;3.88;;;2.70;;
21777;SDS011;11050;52.222;20.916;2023-06-01T01:43:19;7.28;;;3.50;;
21777;SDS011;11050;52.222;20.916;2023-06-01T01:45:49;6.53;;;2.75;;
21777;SDS011;11050;52.222;20.916;2023-06-01T01:48:35;6.93;;;3.00;;
21777;SDS011;11050;52.222;20.916;2023-06-01T01:51:10;4.47;;;2.60;;
21777;SDS011;11050;52.222;20.916;2023-06-01T01:53:44;4.38;;;2.50;;
21777;SDS011;11050;52.222;20.916;2023-06-01T01:56:13;6.30;;;3.22;;
21777;SDS011;11050;52.222;20.916;2023-06-01T01:58:40;5.20;;;2.40;;
21777;SDS011;11050;52.222;20.916;2023-06-01T02:01:07;3.80;;;2.60;;
21777;SDS011;11050;52.222;20.916;2023-06-01T02:03:34;5.18;;;2.75;;
21777;SDS011;11050;52.222;20.916;2023-06-01T02:05:59;6.40;;;2.67;;
21777;SDS011;11050;52.222;20.916;2023-06-01T02:08:25;6.88;;;2.88;;
21777;SDS011;11050;52.222;20.916;2023-06-01T02:10:51;5.03;;;2.53;;
21777;SDS011;11050;52.222;20.916;2023-06-01T02:13:16;4.22;;;2.70;;
21777;SDS011;11050;52.222;20.916;2023-06-01T02:15:42;5.43;;;2.80;;
21777;SDS011;11050;52.222;20.916;2023-06-01T02:18:07;4.35;;;2.78;;
21777;SDS011;11050;52.222;20.916;2023-06-01T02:20:33;6.00;;;3.00;;
21777;SDS011;11050;52.222;20.916;2023-06-01T02:22:59;7.28;;;2.97;;
21777;SDS011;11050;52.222;20.916;2023-06-01T02:25:24;6.15;;;2.83;;
21777;SDS011;11050;52.222;20.916;2023-06-01T02:27:50;3.60;;;2.72;;
21777;SDS011;11050;52.222;20.916;2023-06-01T02:30:16;8.80;;;3.30;;
21777;SDS011;11050;52.222;20.916;2023-06-01T02:32:41;4.55;;;2.47;;
21777;SDS011;11050;52.222;20.916;2023-06-01T02:35:10;8.15;;;2.80;;
21777;SDS011;11050;52.222;20.916;2023-06-01T02:37:36;6.18;;;2.75;;
21777;SDS011;11050;52.222;20.916;2023-06-01T02:40:02;5.97;;;2.50;;
21777;SDS011;11050;52.222;20.916;2023-06-01T02:42:28;7.47;;;2.75;;
21777;SDS011;11050;52.222;20.916;2023-06-01T02:44:54;6.85;;;2.80;;
21777;SDS011;11050;52.222;20.916;2023-06-01T02:47:19;5.30;;;2.58;;
21777;SDS011;11050;52.222;20.916;2023-06-01T02:49:45;4.13;;;2.42;;
21777;SDS011;11050;52.222;20.916;2023-06-01T02:52:11;5.40;;;2.47;;
21777;SDS011;11050;52.222;20.916;2023-06-01T02:54:36;4.88;;;2.80;;
21777;SDS011;11050;52.222;20.916;2023-06-01T02:57:02;4.93;;;2.50;;
21777;SDS011;11050;52.222;20.916;2023-06-01T02:59:28;4.70;;;2.63;;
21777;SDS011;11050;52.222;20.916;2023-06-01T03:01:53;4.45;;;2.10;;
21777;SDS011;11050;52.222;20.916;2023-06-01T03:04:19;6.68;;;2.72;;
21777;SDS011;11050;52.222;20.916;2023-06-01T03:06:45;7.65;;;2.75;;
21777;SDS011;11050;52.222;20.916;2023-06-01T03:09:11;6.10;;;2.63;;
21777;SDS011;11050;52.222;20.916;2023-06-01T03:11:39;4.93;;;2.85;;
21777;SDS011;11050;52.222;20.916;2023-06-01T03:14:06;6.63;;;2.42;;
21777;SDS011;11050;52.222;20.916;2023-06-01T03:16:32;6.32;;;2.58;;
21777;SDS011;11050;52.222;20.916;2023-06-01T03:18:57;4.45;;;2.58;;
21777;SDS011;11050;52.222;20.916;2023-06-01T03:21:23;4.53;;;2.50;;
21777;SDS011;11050;52.222;20.916;2023-06-01T03:23:49;6.45;;;2.63;;
21777;SDS011;11050;52.222;20.916;2023-06-01T03:26:15;6.03;;;2.67;;
21777;SDS011;11050;52.222;20.916;2023-06-01T03:28:43;6.47;;;2.78;;
21777;SDS011;11050;52.222;20.916;2023-06-01T03:31:09;6.40;;;2.67;;
21777;SDS011;11050;52.222;20.916;2023-06-01T03:33:36;8.00;;;3.00;;
21777;SDS011;11050;52.222;20.916;2023-06-01T03:36:02;6.90;;;3.05;;
21777;SDS011;11050;52.222;20.916;2023-06-01T03:38:29;6.75;;;3.17;;
21777;SDS011;11050;52.222;20.916;2023-06-01T03:40:55;6.03;;;3.10;;
21777;SDS011;11050;52.222;20.916;2023-06-01T03:43:21;4.20;;;2.95;;
21777;SDS011;11050;52.222;20.916;2023-06-01T03:45:47;4.95;;;2.35;;
21777;SDS011;11050;52.222;20.916;2023-06-01T03:48:12;7.20;;;3.20;;
21777;SDS011;11050;52.222;20.916;2023-06-01T03:50:38;9.20;;;3.42;;
21777;SDS011;11050;52.222;20.916;2023-06-01T03:53:04;8.15;;;3.33;;
21777;SDS011;11050;52.222;20.916;2023-06-01T03:55:30;8.85;;;3.60;;
21777;SDS011;11050;52.222;20.916;2023-06-01T03:57:56;9.15;;;3.10;;
21777;SDS011;11050;52.222;20.916;2023-06-01T04:00:22;8.85;;;3.85;;
21777;SDS011;11050;52.222;20.916;2023-06-01T04:02:56;7.90;;;3.30;;
21777;SDS011;11050;52.222;20.916;2023-06-01T04:05:27;7.10;;;3.75;;
21777;SDS011;11050;52.222;20.916;2023-06-01T04:07:53;7.50;;;3.70;;
21777;SDS011;11050;52.222;20.916;2023-06-01T04:10:20;7.65;;;3.58;;
21777;SDS011;11050;52.222;20.916;2023-06-01T04:12:48;5.90;;;3.45;;
21777;SDS011;11050;52.222;20.916;2023-06-01T04:15:16;7.50;;;3.35;;
21777;SDS011;11050;52.222;20.916;2023-06-01T04:17:44;8.32;;;4.43;;
21777;SDS011;11050;52.222;20.916;2023-06-01T04:20:11;7.35;;;4.20;;
21777;SDS011;11050;52.222;20.916;2023-06-01T04:22:41;12.38;;;3.92;;
21777;SDS011;11050;52.222;20.916;2023-06-01T04:25:14;7.03;;;3.50;;
21777;SDS011;11050;52.222;20.916;2023-06-01T04:27:44;8.60;;;3.60;;
21777;SDS011;11050;52.222;20.916;2023-06-01T04:30:12;8.63;;;3.95;;
21777;SDS011;11050;52.222;20.916;2023-06-01T04:32:40;8.85;;;3.70;;
21777;SDS011;11050;52.222;20.916;2023-06-01T04:35:09;7.45;;;4.15;;
21777;SDS011;11050;52.222;20.916;2023-06-01T04:37:36;7.38;;;4.38;;
21777;SDS011;11050;52.222;20.916;2023-06-01T04:40:08;9.60;;;5.15;;
21777;SDS011;11050;52.222;20.916;2023-06-01T04:42:35;7.20;;;4.00;;
21777;SDS011;11050;52.222;20.916;2023-06-01T04:45:06;11.52;;;4.50;;
21777;SDS011;11050;52.222;20.916;2023-06-01T04:47:34;10.25;;;4.53;;
21777;SDS011;11050;52.222;20.916;2023-06-01T04:50:08;10.88;;;4.40;;
21777;SDS011;11050;52.222;20.916;2023-06-01T04:52:36;8.80;;;4.13;;
21777;SDS011;11050;52.222;20.916;2023-06-01T04:55:06;14.57;;;4.78;;
21777;SDS011;11050;52.222;20.916;2023-06-01T04:57:33;7.93;;;4.18;;
21777;SDS011;11050;52.222;20.916;2023-06-01T05:00:01;7.72;;;4.18;;
21777;SDS011;11050;52.222;20.916;2023-06-01T05:02:31;7.85;;;4.50;;
21777;SDS011;11050;52.222;20.916;2023-06-01T05:04:57;7.85;;;4.80;;
21777;SDS011;11050;52.222;20.916;2023-06-01T05:07:22;11.02;;;4.32;;
21777;SDS011;11050;52.222;20.916;2023-06-01T05:09:49;9.57;;;4.43;;
21777;SDS011;11050;52.222;20.916;2023-06-01T05:12:15;10.82;;;4.38;;
21777;SDS011;11050;52.222;20.916;2023-06-01T05:14:41;6.70;;;4.35;;
21777;SDS011;11050;52.222;20.916;2023-06-01T05:17:06;9.70;;;4.43;;
21777;SDS011;11050;52.222;20.916;2023-06-01T05:19:32;6.95;;;4.32;;
21777;SDS011;11050;52.222;20.916;2023-06-01T05:21:58;7.75;;;4.70;;
21777;SDS011;11050;52.222;20.916;2023-06-01T05:24:23;17.33;;;5.13;;
21777;SDS011;11050;52.222;20.916;2023-06-01T05:26:49;10.77;;;4.57;;
21777;SDS011;11050;52.222;20.916;2023-06-01T05:29:15;10.20;;;4.80;;
21777;SDS011;11050;52.222;20.916;2023-06-01T05:31:40;9.07;;;4.13;;
21777;SDS011;11050;52.222;20.916;2023-06-01T05:34:06;8.55;;;4.32;;
21777;SDS011;11050;52.222;20.916;2023-06-01T05:36:32;8.07;;;4.13;;
21777;SDS011;11050;52.222;20.916;2023-06-01T05:38:57;7.53;;;4.45;;
21777;SDS011;11050;52.222;20.916;2023-06-01T05:41:24;5.55;;;3.90;;
21777;SDS011;11050;52.222;20.916;2023-06-01T05:43:50;6.93;;;4.20;;
21777;SDS011;11050;52.222;20.916;2023-06-01T05:46:17;8.15;;;4.43;;
21777;SDS011;11050;52.222;20.916;2023-06-01T05:48:43;7.18;;;4.47;;
21777;SDS011;11050;52.222;20.916;2023-06-01T05:51:08;7.65;;;4.35;;
21777;SDS011;11050;52.222;20.916;2023-06-01T05:53:34;8.77;;;4.65;;
21777;SDS011;11050;52.222;20.916;2023-06-01T05:56:00;8.73;;;4.47;;
21777;SDS011;11050;52.222;20.916;2023-06-01T05:58:25;8.93;;;4.60;;
21777;SDS011;11050;52.222;20.916;2023-06-01T06:00:51;9.30;;;4.60;;
21777;SDS011;11050;52.222;20.916;2023-06-01T06:03:17;12.85;;;4.90;;
21777;SDS011;11050;52.222;20.916;2023-06-01T06:05:43;13.00;;;4.68;;
21777;SDS011;11050;52.222;20.916;2023-06-01T06:08:09;9.30;;;4.80;;
21777;SDS011;11050;52.222;20.916;2023-06-01T06:10:35;14.07;;;4.70;;
21777;SDS011;11050;52.222;20.916;2023-06-01T06:13:01;10.02;;;4.63;;
21777;SDS011;11050;52.222;20.916;2023-06-01T06:15:27;8.20;;;4.88;;
21777;SDS011;11050;52.222;20.916;2023-06-01T06:17:52;12.65;;;4.93;;
21777;SDS011;11050;52.222;20.916;2023-06-01T06:20:18;12.65;;;4.85;;
21777;SDS011;11050;52.222;20.916;2023-06-01T06:22:48;14.40;;;4.68;;
21777;SDS011;11050;52.222;20.916;2023-06-01T06:25:16;9.07;;;4.03;;
21777;SDS011;11050;52.222;20.916;2023-06-01T06:27:42;8.40;;;4.70;;
21777;SDS011;11050;52.222;20.916;2023-06-01T06:30:07;9.65;;;4.05;;
21777;SDS011;11050;52.222;20.916;2023-06-01T06:32:34;10.75;;;4.47;;
21777;SDS011;11050;52.222;20.916;2023-06-01T06:35:00;8.63;;;4.43;;
21777;SDS011;11050;52.222;20.916;2023-06-01T06:37:26;9.27;;;4.70;;
21777;SDS011;11050;52.222;20.916;2023-06-01T06:39:54;11.73;;;4.90;;
21777;SDS011;11050;52.222;20.916;2023-06-01T06:42:19;8.68;;;4.38;;
21777;SDS011;11050;52.222;20.916;2023-06-01T06:44:45;12.48;;;4.30;;
21777;SDS011;11050;52.222;20.916;2023-06-01T06:47:11;7.65;;;3.83;;
21777;SDS011;11050;52.222;20.916;2023-06-01T06:49:40;13.75;;;4.75;;
21777;SDS011;11050;52.222;20.916;2023-06-01T06:52:08;5.75;;;3.95;;
21777;SDS011;11050;52.222;20.916;2023-06-01T06:54:34;17.05;;;4.80;;
21777;SDS011;11050;52.222;20.916;2023-06-01T06:57:01;12.60;;;4.00;;
21777;SDS011;11050;52.222;20.916;2023-06-01T06:59:28;6.93;;;4.13;;
21777;SDS011;11050;52.222;20.916;2023-06-01T07:01:53;7.38;;;3.67;;
21777;SDS011;11050;52.222;20.916;2023-06-01T07:04:19;10.75;;;4.15;;
21777;SDS011;11050;52.222;20.916;2023-06-01T07:06:45;10.68;;;3.60;;
21777;SDS011;11050;52.222;20.916;2023-06-01T07:09:11;11.65;;;3.90;;
21777;SDS011;11050;52.222;20.916;2023-06-01T07:11:37;9.98;;;4.03;;
21777;SDS011;11050;52.222;20.916;2023-06-01T07:14:04;13.55;;;4.35;;
21777;SDS011;11050;52.222;20.916;2023-06-01T07:16:30;11.05;;;4.32;;
21777;SDS011;11050;52.222;20.916;2023-06-01T07:18:55;15.40;;;4.07;;
21777;SDS011;11050;52.222;20.916;2023-06-01T07:21:21;11.60;;;4.65;;
21777;SDS011;11050;52.222;20.916;2023-06-01T07:23:47;7.15;;;3.92;;
21777;SDS011;11050;52.222;20.916;2023-06-01T07:26:13;7.53;;;3.42;;
21777;SDS011;11050;52.222;20.916;2023-06-01T07:28:38;5.13;;;3.08;;
21777;SDS011;11050;52.222;20.916;2023-06-01T07:31:06;5.72;;;2.85;;
21777;SDS011;11050;52.222;20.916;2023-06-01T07:33:32;9.30;;;3.38;;
21777;SDS011;11050;52.222;20.916;2023-06-01T07:36:00;6.10;;;3.53;;
21777;SDS011;11050;52.222;20.916;2023-06-01T07:38:27;8.00;;;3.28;;
21777;SDS011;11050;52.222;20.916;2023-06-01T07:40:52;5.82;;;2.60;;
21777;SDS011;11050;52.222;20.916;2023-06-01T07:43:18;6.85;;;3.67;;
21777;SDS011;11050;52.222;20.916;2023-06-01T07:45:44;11.05;;;4.10;;
21777;SDS011;11050;52.222;20.916;2023-06-01T07:48:10;6.80;;;3.90;;
21777;SDS011;11050;52.222;20.916;2023-06-01T07:50:35;7.45;;;3.03;;
21777;SDS011;11050;52.222;20.916;2023-06-01T07:53:02;5.47;;;3.25;;
21777;SDS011;11050;52.222;20.916;2023-06-01T07:55:28;6.65;;;2.97;;
21777;SDS011;11050;52.222;20.916;2023-06-01T07:57:54;6.07;;;3.00;;
21777;SDS011;11050;52.222;20.916;2023-06-01T08:00:19;7.57;;;3.30;;
21777;SDS011;11050;52.222;20.916;2023-06-01T08:02:45;4.93;;;2.83;;
21777;SDS011;11050;52.222;20.916;2023-06-01T08:05:11;8.70;;;3.78;;
21777;SDS011;11050;52.222;20.916;2023-06-01T08:07:39;6.40;;;2.58;;
21777;SDS011;11050;52.222;20.916;2023-06-01T08:10:07;6.07;;;2.42;;
21777;SDS011;11050;52.222;20.916;2023-06-01T08:12:34;6.70;;;2.55;;
21777;SDS011;11050;52.222;20.916;2023-06-01T08:15:01;6.50;;;2.75;;
21777;SDS011;11050;52.222;20.916;2023-06-01T08:17:28;6.63;;;2.45;;
21777;SDS011;11050;52.222;20.916;2023-06-01T08:19:55;5.25;;;2.45;;
21777;SDS011;11050;52.222;20.916;2023-06-01T08:22:21;8.32;;;2.95;;
21777;SDS011;11050;52.222;20.916;2023-06-01T08:24:49;6.63;;;3.00;;
21777;SDS011;11050;52.222;20.916;2023-06-01T08:27:17;6.05;;;3.00;;
21777;SDS011;11050;52.222;20.916;2023-06-01T08:29:45;5.60;;;2.80;;
21777;SDS011;11050;52.222;20.916;2023-06-01T08:32:15;8.15;;;3.17;;
21777;SDS011;11050;52.222;20.916;2023-06-01T08:34:45;7.78;;;3.22;;
21777;SDS011;11050;52.222;20.916;2023-06-01T08:37:12;7.15;;;3.17;;
21777;SDS011;11050;52.222;20.916;2023-06-01T08:39:39;6.88;;;3.05;;
21777;SDS011;11050;52.222;20.916;2023-06-01T08:44:40;6.20;;;2.78;;
21777;SDS011;11050;52.222;20.916;2023-06-01T08:47:07;6.70;;;3.00;;
21777;SDS011;11050;52.222;20.916;2023-06-01T08:49:35;9.65;;;3.42;;
21777;SDS011;11050;52.222;20.916;2023-06-01T08:52:05;10.68;;;3.25;;
21777;SDS011;11050;52.222;20.916;2023-06-01T08:54:38;5.00;;;2.75;;
21777;SDS011;11050;52.222;20.916;2023-06-01T08:57:05;6.93;;;2.75;;
21777;SDS011;11050;52.222;20.916;2023-06-01T08:59:35;10.43;;;2.97;;
21777;SDS011;11050;52.222;20.916;2023-06-01T09:02:02;6.65;;;2.60;;
21777;SDS011;11050;52.222;20.916;2023-06-01T09:04:28;5.65;;;3.10;;
21777;SDS011;11050;52.222;20.916;2023-06-01T09:06:57;5.47;;;3.47;;
21777;SDS011;11050;52.222;20.916;2023-06-01T09:09:23;5.97;;;2.75;;
21777;SDS011;11050;52.222;20.916;2023-06-01T09:12:12;5.78;;;2.83;;
21777;SDS011;11050;52.222;20.916;2023-06-01T09:17:40;5.32;;;2.97;;
21777;SDS011;11050;52.222;20.916;2023-06-01T09:20:13;7.70;;;3.35;;
21777;SDS011;11050;52.222;20.916;2023-06-01T09:22:52;8.48;;;3.45;;
21777;SDS011;11050;52.222;20.916;2023-06-01T09:25:29;6.80;;;3.20;;
21777;SDS011;11050;52.222;20.916;2023-06-01T09:27:57;5.15;;;3.20;;
21777;SDS011;11050;52.222;20.916;2023-06-01T09:30:26;8.20;;;2.78;;
21777;SDS011;11050;52.222;20.916;2023-06-01T09:33:11;4.70;;;2.55;;
21777;SDS011;11050;52.222;20.916;2023-06-01T09:38:22;7.32;;;2.92;;
21777;SDS011;11050;52.222;20.916;2023-06-01T09:40:56;5.35;;;2.83;;
21777;SDS011;11050;52.222;20.916;2023-06-01T09:43:27;5.53;;;3.05;;
21777;SDS011;11050;52.222;20.916;2023-06-01T09:46:05;8.23;;;2.97;;
21777;SDS011;11050;52.222;20.916;2023-06-01T09:48:38;5.13;;;2.83;;
21777;SDS011;11050;52.222;20.916;2023-06-01T09:51:04;8.27;;;3.10;;
21777;SDS011;11050;52.222;20.916;2023-06-01T09:53:47;8.95;;;3.20;;
21777;SDS011;11050;52.222;20.916;2023-06-01T09:56:13;5.40;;;2.80;;
21777;SDS011;11050;52.222;20.916;2023-06-01T09:58:40;5.70;;;2.90;;
21777;SDS011;11050;52.222;20.916;2023-06-01T10:01:06;7.25;;;3.00;;
21777;SDS011;11050;52.222;20.916;2023-06-01T10:03:33;4.72;;;3.13;;
21777;SDS011;11050;52.222;20.916;2023-06-01T10:06:05;7.93;;;2.63;;
21777;SDS011;11050;52.222;20.916;2023-06-01T10:08:31;4.63;;;2.75;;
21777;SDS011;11050;52.222;20.916;2023-06-01T10:10:59;6.53;;;3.00;;
21777;SDS011;11050;52.222;20.916;2023-06-01T10:13:24;8.68;;;2.80;;
21777;SDS011;11050;52.222;20.916;2023-06-01T10:15:53;4.55;;;2.92;;
21777;SDS011;11050;52.222;20.916;2023-06-01T10:18:20;3.92;;;2.30;;
21777;SDS011;11050;52.222;20.916;2023-06-01T10:20:46;5.28;;;2.95;;
21777;SDS011;11050;52.222;20.916;2023-06-01T10:23:12;6.68;;;2.83;;
21777;SDS011;11050;52.222;20.916;2023-06-01T10:25:43;6.75;;;3.30;;
21777;SDS011;11050;52.222;20.916;2023-06-01T10:28:14;4.85;;;2.70;;
21777;SDS011;11050;52.222;20.916;2023-06-01T10:30:42;4.53;;;2.55;;
21777;SDS011;11050;52.222;20.916;2023-06-01T10:33:07;8.70;;;2.72;;
21777;SDS011;11050;52.222;20.916;2023-06-01T10:40:40;5.65;;;2.72;;
21777;SDS011;11050;52.222;20.916;2023-06-01T10:43:07;4.30;;;2.63;;
21777;SDS011;11050;52.222;20.916;2023-06-01T10:48:56;5.35;;;2.85;;
21777;SDS011;11050;52.222;20.916;2023-06-01T10:51:22;7.93;;;3.00;;
21777;SDS011;11050;52.222;20.916;2023-06-01T10:53:50;7.85;;;3.38;;
21777;SDS011;11050;52.222;20.916;2023-06-01T11:01:34;8.27;;;3.10;;
21777;SDS011;11050;52.222;20.916;2023-06-01T11:04:10;11.95;;;3.10;;
21777;SDS011;11050;52.222;20.916;2023-06-01T11:06:38;7.75;;;3.50;;
21777;SDS011;11050;52.222;20.916;2023-06-01T11:09:08;9.50;;;2.67;;
21777;SDS011;11050;52.222;20.916;2023-06-01T11:14:13;5.30;;;3.00;;
21777;SDS011;11050;52.222;20.916;2023-06-01T11:16:41;11.13;;;3.33;;
21777;SDS011;11050;52.222;20.916;2023-06-01T11:19:07;5.85;;;3.25;;
21777;SDS011;11050;52.222;20.916;2023-06-01T11:24:09;8.05;;;3.08;;
21777;SDS011;11050;52.222;20.916;2023-06-01T11:26:41;6.00;;;3.60;;
21777;SDS011;11050;52.222;20.916;2023-06-01T11:29:18;6.07;;;3.30;;
21777;SDS011;11050;52.222;20.916;2023-06-01T11:31:54;2.97;;;2.50;;
21777;SDS011;11050;52.222;20.916;2023-06-01T11:34:38;7.40;;;2.78;;
21777;SDS011;11050;52.222;20.916;2023-06-01T11:37:15;9.00;;;2.92;;
21777;SDS011;11050;52.222;20.916;2023-06-01T11:39:43;13.43;;;3.03;;
21777;SDS011;11050;52.222;20.916;2023-06-01T11:42:13;11.23;;;3.10;;
21777;SDS011;11050;52.222;20.916;2023-06-01T11:44:41;7.72;;;2.95;;
21777;SDS011;11050;52.222;20.916;2023-06-01T11:47:20;5.65;;;2.80;;
21777;SDS011;11050;52.222;20.916;2023-06-01T11:49:47;6.07;;;3.10;;
21777;SDS011;11050;52.222;20.916;2023-06-01T11:52:19;4.57;;;2.72;;
21777;SDS011;11050;52.222;20.916;2023-06-01T11:54:45;4.43;;;3.13;;
21777;SDS011;11050;52.222;20.916;2023-06-01T11:57:13;5.55;;;2.72;;
21777;SDS011;11050;52.222;20.916;2023-06-01T11:59:46;7.60;;;3.08;;
21777;SDS011;11050;52.222;20.916;2023-06-01T12:04:59;6.70;;;2.92;;
21777;SDS011;11050;52.222;20.916;2023-06-01T12:07:48;8.30;;;2.72;;
21777;SDS011;11050;52.222;20.916;2023-06-01T12:10:18;6.38;;;3.00;;
21777;SDS011;11050;52.222;20.916;2023-06-01T12:12:45;8.73;;;2.88;;
21777;SDS011;11050;52.222;20.916;2023-06-01T12:15:13;5.53;;;2.90;;
21777;SDS011;11050;52.222;20.916;2023-06-01T12:17:47;12.00;;;2.95;;
21777;SDS011;11050;52.222;20.916;2023-06-01T12:20:30;4.28;;;2.53;;
21777;SDS011;11050;52.222;20.916;2023-06-01T12:23:13;3.60;;;3.15;;
21777;SDS011;11050;52.222;20.916;2023-06-01T12:28:18;4.32;;;2.78;;
21777;SDS011;11050;52.222;20.916;2023-06-01T12:30:46;9.68;;;3.00;;
21777;SDS011;11050;52.222;20.916;2023-06-01T12:35:59;4.85;;;2.85;;
21777;SDS011;11050;52.222;20.916;2023-06-01T12:41:17;6.45;;;2.70;;
21777;SDS011;11050;52.222;20.916;2023-06-01T12:43:44;6.82;;;2.90;;
21777;SDS011;11050;52.222;20.916;2023-06-01T12:46:17;5.35;;;3.20;;
21777;SDS011;11050;52.222;20.916;2023-06-01T12:48:47;7.68;;;3.17;;
21777;SDS011;11050;52.222;20.916;2023-06-01T12:51:14;5.40;;;2.80;;
21777;SDS011;11050;52.222;20.916;2023-06-01T12:53:40;7.57;;;2.97;;
21777;SDS011;11050;52.222;20.916;2023-06-01T12:56:13;7.72;;;3.20;;
21777;SDS011;11050;52.222;20.916;2023-06-01T12:58:39;8.20;;;3.00;;
21777;SDS011;11050;52.222;20.916;2023-06-01T13:01:05;6.13;;;2.78;;
21777;SDS011;11050;52.222;20.916;2023-06-01T13:03:31;6.55;;;2.78;;
21777;SDS011;11050;52.222;20.916;2023-06-01T13:05:58;10.95;;;3.33;;
21777;SDS011;11050;52.222;20.916;2023-06-01T13:08:25;3.53;;;2.55;;
21777;SDS011;11050;52.222;20.916;2023-06-01T13:10:51;4.88;;;2.70;;
21777;SDS011;11050;52.222;20.916;2023-06-01T13:13:18;6.82;;;2.78;;
21777;SDS011;11050;52.222;20.916;2023-06-01T13:15:45;6.57;;;2.53;;
21777;SDS011;11050;52.222;20.916;2023-06-01T13:18:13;7.15;;;2.70;;
21777;SDS011;11050;52.222;20.916;2023-06-01T13:20:40;3.35;;;2.50;;
21777;SDS011;11050;52.222;20.916;2023-06-01T13:23:06;9.32;;;2.65;;
21777;SDS011;11050;52.222;20.916;2023-06-01T13:25:33;4.85;;;2.72;;
21777;SDS011;11050;52.222;20.916;2023-06-01T13:27:59;7.43;;;2.85;;
21777;SDS011;11050;52.222;20.916;2023-06-01T13:30:26;8.57;;;2.60;;
21777;SDS011;11050;52.222;20.916;2023-06-01T13:32:53;4.35;;;2.55;;
21777;SDS011;11050;52.222;20.916;2023-06-01T13:35:20;5.10;;;3.10;;
21777;SDS011;11050;52.222;20.916;2023-06-01T13:37:46;5.60;;;2.80;;
21777;SDS011;11050;52.222;20.916;2023-06-01T13:40:12;4.57;;;3.00;;
21777;SDS011;11050;52.222;20.916;2023-06-01T13:42:38;4.50;;;2.75;;
21777;SDS011;11050;52.222;20.916;2023-06-01T13:45:04;6.88;;;2.92;;
21777;SDS011;11050;52.222;20.916;2023-06-01T13:47:30;3.53;;;2.33;;
21777;SDS011;11050;52.222;20.916;2023-06-01T13:49:56;8.93;;;3.30;;
21777;SDS011;11050;52.222;20.916;2023-06-01T13:52:22;5.45;;;3.58;;
21777;SDS011;11050;52.222;20.916;2023-06-01T13:54:50;4.68;;;2.92;;
21777;SDS011;11050;52.222;20.916;2023-06-01T13:57:16;6.82;;;4.38;;
21777;SDS011;11050;52.222;20.916;2023-06-01T13:59:42;4.07;;;3.05;;
21777;SDS011;11050;52.222;20.916;2023-06-01T14:02:08;4.85;;;3.17;;
21777;SDS011;11050;52.222;20.916;2023-06-01T14:04:34;6.90;;;3.40;;
21777;SDS011;11050;52.222;20.916;2023-06-01T14:07:00;5.13;;;2.88;;
21777;SDS011;11050;52.222;20.916;2023-06-01T14:09:25;5.53;;;2.95;;
21777;SDS011;11050;52.222;20.916;2023-06-01T14:11:51;5.13;;;2.92;;
21777;SDS011;11050;52.222;20.916;2023-06-01T14:14:16;8.60;;;3.70;;
21777;SDS011;11050;52.222;20.916;2023-06-01T14:16:42;7.30;;;3.05;;
21777;SDS011;11050;52.222;20.916;2023-06-01T14:19:08;5.10;;;3.17;;
21777;SDS011;11050;52.222;20.916;2023-06-01T14:21:33;4.85;;;3.20;;
21777;SDS011;11050;52.222;20.916;2023-06-01T14:24:00;8.00;;;3.83;;
21777;SDS011;11050;52.222;20.916;2023-06-01T14:26:27;4.28;;;2.97;;
21777;SDS011;11050;52.222;20.916;2023-06-01T14:28:53;5.57;;;2.70;;
21777;SDS011;11050;52.222;20.916;2023-06-01T14:31:19;5.85;;;3.03;;
21777;SDS011;11050;52.222;20.916;2023-06-01T14:33:45;6.28;;;3.38;;
21777;SDS011;11050;52.222;20.916;2023-06-01T14:36:12;10.85;;;3.60;;
21777;SDS011;11050;52.222;20.916;2023-06-01T14:38:38;7.50;;;3.55;;
21777;SDS011;11050;52.222;20.916;2023-06-01T14:41:04;4.22;;;2.50;;
21777;SDS011;11050;52.222;20.916;2023-06-01T14:43:30;10.73;;;2.95;;
21777;SDS011;11050;52.222;20.916;2023-06-01T14:45:59;5.00;;;3.20;;
21777;SDS011;11050;52.222;20.916;2023-06-01T14:48:25;7.80;;;3.00;;
21777;SDS011;11050;52.222;20.916;2023-06-01T14:50:50;5.00;;;3.17;;
21777;SDS011;11050;52.222;20.916;2023-06-01T14:53:16;5.20;;;3.08;;
21777;SDS011;11050;52.222;20.916;2023-06-01T14:55:43;7.85;;;3.55;;
21777;SDS011;11050;52.222;20.916;2023-06-01T14:58:09;5.78;;;2.88;;
21777;SDS011;11050;52.222;20.916;2023-06-01T15:00:35;7.90;;;2.97;;
21777;SDS011;11050;52.222;20.916;2023-06-01T15:03:02;6.75;;;3.65;;
21777;SDS011;11050;52.222;20.916;2023-06-01T15:05:32;8.45;;;3.33;;
21777;SDS011;11050;52.222;20.916;2023-06-01T15:07:58;5.57;;;2.53;;
21777;SDS011;11050;52.222;20.916;2023-06-01T15:10:25;8.75;;;3.75;;
21777;SDS011;11050;52.222;20.916;2023-06-01T15:12:51;6.65;;;3.53;;
21777;SDS011;11050;52.222;20.916;2023-06-01T15:15:17;5.47;;;2.97;;
21777;SDS011;11050;52.222;20.916;2023-06-01T15:17:43;12.13;;;3.15;;
21777;SDS011;11050;52.222;20.916;2023-06-01T15:20:09;6.75;;;3.08;;
21777;SDS011;11050;52.222;20.916;2023-06-01T15:22:36;5.47;;;3.33;;
21777;SDS011;11050;52.222;20.916;2023-06-01T15:25:01;9.57;;;3.38;;
21777;SDS011;11050;52.222;20.916;2023-06-01T15:27:27;5.57;;;2.78;;
21777;SDS011;11050;52.222;20.916;2023-06-01T15:29:53;6.30;;;2.85;;